BRE weather

Las Brechas Airport
Hermosillo, Sonora, Mexico

Public forecast

Using degrees Celsius for public forecast. Weather courtesy of forecast.io.

Closest aviation weather report (METAR) to Las Brechas Airport

Closest report is General Ignacio P. Garcia International Airport, 16.9 nm (31.2 km) SW. Retrieved 2020/06/04 22:46 UTC (43 minutes ago):

MMHO 042246Z 26008KT 10SM SKC 45/04 A2967 RMK ISOL CI HZY

Closest aviation forecast (TAF) to Las Brechas Airport

Closest forecast is General Ignacio P. Garcia International Airport, 16.9 nm (31.2 km) SW. Retrieved 2020/06/04 18:17 UTC (5 hours ago):

TAF MMHO 041606Z 0418/0518 25005KT P6SM SCT100 SCT220 BECMG 0420/0421 25015KT FM050200 32005KT P6SM BKN100 BECMG 0505/0506 00000KT FM051200 00000KT P6SM SCT100 SCT220